Camarillo, CA (93010)

4:28 PM PST on March 05, 2015 (GMT -0800)
Temple and Ponderosa | Change Station
CLOSE
Current Station
Personal Weather Station
Location: Camarillo, CA
Elevation: 174 ft
Nearby Weather Stations

Elev 174 ft 34.23 °N, 119.03 °W | Updated 0 second ago

Clear
Clear
70.7 °F
Feels Like 75 °F
N
5.0
Wind Variable Wind from SW
Gusts 10.0 mph

Today
High -- | Low -- °F
--% Chance of Precip.
Yesterday
High -- | Low -- °F
Precip. -- in
6:20 AM 5:55 PM
Full, 100% visible
Pressure 30.21 in
Visibility 10.0 miles
Clouds Clear
Heat Index 75 °F
Dew Point 31 °F
Humidity 23%
Rainfall in
Snow Depth Not available.
UV 2 out of 12
Pollen 8.90 out of 12
Air Quality Not available.
Flu Activity Not available.
METAR KCMA 052355Z 23007KT 10SM CLR 22/M02 A3019 RMK AO2 SLP230 T02171022 10261 20217 56009

More Conditions Fewer Conditions

Pressure 30.21 in
Visibility 10.0 miles
Clouds Clear
Heat Index 75 °F
Dew Point 31 °F
Humidity 23%
Rainfall in
Snow Depth Not available.
UV 2 out of 12
Pollen 8.90 out of 12
Air Quality Not available.
Flu Activity Not available.
METAR KCMA 052355Z 23007KT 10SM CLR 22/M02 A3019 RMK AO2 SLP230 T02171022 10261 20217 56009

More Conditions Fewer Conditions

10-Day Weather Forecast

Almanac

Astronomy

Mar. 05, 2015 Rise Set
Actual Time
Civil Twilight
Nautical Twilight
Astronomical Twilight
Moon
Length of Visible Light
Length of Day
Tomorrow will be .
, % of the Moon is Illuminated

Today's Extremes

State Highs State Lows

Community

WunderPhotos

Upload Photos

1,803,070 photos uploaded!

WunderBlogs® & News

Nearby

Air Quality

  Air Quality AQ Index Pollutant
Not available.

Snow Depth

Station Depth Elevation

Earthquake Activity

City Distance Mag. Time & Date
Minimum magnitude displayed is 2.5.

Coastal Water Temperatures

Place Temperature

Nearby Weather Stations